Main page
METAR-TAF:

METAR-TAF

Airports :

Saint-Étienne–Bouthéon Airport

Saint-Etienne, France

latitude: 45-32N, longitude: 004-18E, elevation: 404 m

Current weather observation

The report was made 28 minutes ago, at 23:30 UTC
Wind 2 kt from the South
Temperature 3°C
Humidity 93%
Pressure 1009 hPa
Visibility 10 km or more
Few clouds at a height of 1700 ft
Scattered clouds at a height of 7600 ft
Overcast at a height of 10000 ft

METAR: LFMH 172330Z AUTO 19002KT 9999 FEW017 SCT076 OVC100 03/02 Q1009

Time: 00:58 (23:58 UTC)

Forecast

The report was made 9 hours and 58 minutes ago, at 14:00 UTC
Forecast valid from 17 at 15 UTC to 18 at 15 UTC
Wind 4 kt from the North
Visibility 10 km or more
Overcast at a height of 2800 ft
Probability 40%
from 17 at 22 UTC to 18 at 09 UTC
Visibility: 0600 m
fog
Becoming
from 18 at 11 UTC to 18 at 13 UTC
Scattered clouds at a height of 3000 ft

TAF: LFMH 171400Z 1715/1815 36004KT 9999 OVC028 PROB40 1722/1809 0600 FG VV/// BECMG 1811/1813 SCT030

Weather observations and forecasts of more than 4000 airports (METAR and TAF reports).

The available stations are represented by yellow and red dots on the map.

Hover mouse over dot to see the name of the station.

Then click to see weather observations and forecasts.

To change the map : click on the green buttons with a black cross to zoom in, on the green button with a dash to zoom out, or on the green arrows for adjacent maps.


METAR-TAF: